sensor_id;sensor_type;location;lat;lon;timestamp;temperature;humidity
21551;DHT22;10936;49.836;7.078;2023-01-15T07:00:48;18.50;95.10
21551;DHT22;10936;49.836;7.078;2023-01-15T07:03:20;18.50;95.10
21551;DHT22;10936;49.836;7.078;2023-01-15T07:05:45;18.50;95.10
21551;DHT22;10936;49.836;7.078;2023-01-15T07:08:11;18.50;95.10
21551;DHT22;10936;49.836;7.078;2023-01-15T07:10:36;18.50;95.10
21551;DHT22;10936;49.836;7.078;2023-01-15T07:13:02;18.50;95.10
21551;DHT22;10936;49.836;7.078;2023-01-15T07:15:28;18.50;95.10
21551;DHT22;10936;49.836;7.078;2023-01-15T07:17:54;18.50;95.10
21551;DHT22;10936;49.836;7.078;2023-01-15T07:20:20;18.50;95.10
21551;DHT22;10936;49.836;7.078;2023-01-15T07:22:50;18.50;95.10
21551;DHT22;10936;49.836;7.078;2023-01-15T07:25:15;18.50;95.00
21551;DHT22;10936;49.836;7.078;2023-01-15T07:27:41;18.50;95.00
21551;DHT22;10936;49.836;7.078;2023-01-15T07:30:07;18.50;95.00
21551;DHT22;10936;49.836;7.078;2023-01-15T07:32:33;18.50;95.00
21551;DHT22;10936;49.836;7.078;2023-01-15T07:34:58;18.50;95.00
21551;DHT22;10936;49.836;7.078;2023-01-15T07:37:24;18.60;95.00
21551;DHT22;10936;49.836;7.078;2023-01-15T07:39:49;18.50;95.00
21551;DHT22;10936;49.836;7.078;2023-01-15T07:42:15;18.50;95.00
21551;DHT22;10936;49.836;7.078;2023-01-15T07:44:59;18.50;95.00
21551;DHT22;10936;49.836;7.078;2023-01-15T07:47:43;18.50;95.00
21551;DHT22;10936;49.836;7.078;2023-01-15T07:50:27;18.50;95.00
21551;DHT22;10936;49.836;7.078;2023-01-15T07:52:53;18.50;95.00
21551;DHT22;10936;49.836;7.078;2023-01-15T07:55:18;18.50;95.00
21551;DHT22;10936;49.836;7.078;2023-01-15T07:57:44;18.50;95.00
21551;DHT22;10936;49.836;7.078;2023-01-15T08:00:18;18.50;95.00
21551;DHT22;10936;49.836;7.078;2023-01-15T08:02:44;18.50;95.00
21551;DHT22;10936;49.836;7.078;2023-01-15T08:05:10;18.50;95.10
21551;DHT22;10936;49.836;7.078;2023-01-15T08:07:40;18.50;95.10
21551;DHT22;10936;49.836;7.078;2023-01-15T08:10:11;18.50;95.10
21551;DHT22;10936;49.836;7.078;2023-01-15T08:12:37;18.50;95.10
21551;DHT22;10936;49.836;7.078;2023-01-15T08:15:21;18.50;95.10
21551;DHT22;10936;49.836;7.078;2023-01-15T08:17:47;18.50;95.10
21551;DHT22;10936;49.836;7.078;2023-01-15T08:20:33;18.50;95.10
21551;DHT22;10936;49.836;7.078;2023-01-15T08:23:00;18.50;95.10
21551;DHT22;10936;49.836;7.078;2023-01-15T08:25:26;18.50;95.10
21551;DHT22;10936;49.836;7.078;2023-01-15T08:27:52;18.50;95.10
21551;DHT22;10936;49.836;7.078;2023-01-15T08:30:20;18.60;95.10
21551;DHT22;10936;49.836;7.078;2023-01-15T08:32:46;18.50;95.10
21551;DHT22;10936;49.836;7.078;2023-01-15T08:35:12;18.50;95.10
21551;DHT22;10936;49.836;7.078;2023-01-15T08:37:39;18.50;95.10
21551;DHT22;10936;49.836;7.078;2023-01-15T08:40:05;18.50;95.10
21551;DHT22;10936;49.836;7.078;2023-01-15T08:42:32;18.50;95.10
21551;DHT22;10936;49.836;7.078;2023-01-15T08:44:57;18.50;95.00
21551;DHT22;10936;49.836;7.078;2023-01-15T08:47:23;18.60;95.10
21551;DHT22;10936;49.836;7.078;2023-01-15T08:49:48;18.50;95.00
21551;DHT22;10936;49.836;7.078;2023-01-15T08:52:14;18.50;95.00
21551;DHT22;10936;49.836;7.078;2023-01-15T08:54:40;18.60;95.10
21551;DHT22;10936;49.836;7.078;2023-01-15T08:57:05;18.50;95.00
21551;DHT22;10936;49.836;7.078;2023-01-15T08:59:33;18.50;95.00
21551;DHT22;10936;49.836;7.078;2023-01-15T09:01:59;18.50;94.90
21551;DHT22;10936;49.836;7.078;2023-01-15T09:04:25;18.50;94.90
21551;DHT22;10936;49.836;7.078;2023-01-15T09:06:50;18.60;95.00
21551;DHT22;10936;49.836;7.078;2023-01-15T09:09:16;18.50;94.90
21551;DHT22;10936;49.836;7.078;2023-01-15T09:11:43;18.50;94.90
21551;DHT22;10936;49.836;7.078;2023-01-15T09:14:12;18.50;94.90
21551;DHT22;10936;49.836;7.078;2023-01-15T09:16:38;18.50;94.90
21551;DHT22;10936;49.836;7.078;2023-01-15T09:19:04;18.60;94.90
21551;DHT22;10936;49.836;7.078;2023-01-15T09:21:30;18.60;94.90
21551;DHT22;10936;49.836;7.078;2023-01-15T09:23:56;18.50;94.90
21551;DHT22;10936;49.836;7.078;2023-01-15T09:26:33;18.50;94.90
21551;DHT22;10936;49.836;7.078;2023-01-15T09:29:00;18.50;94.90
21551;DHT22;10936;49.836;7.078;2023-01-15T09:31:27;18.50;94.90
21551;DHT22;10936;49.836;7.078;2023-01-15T09:33:52;18.50;94.90
21551;DHT22;10936;49.836;7.078;2023-01-15T09:36:27;18.50;94.90
21551;DHT22;10936;49.836;7.078;2023-01-15T09:38:54;18.60;94.90
21551;DHT22;10936;49.836;7.078;2023-01-15T09:41:23;18.50;94.90
21551;DHT22;10936;49.836;7.078;2023-01-15T09:44:38;18.60;94.90
21551;DHT22;10936;49.836;7.078;2023-01-15T09:49:56;18.50;94.90
21551;DHT22;10936;49.836;7.078;2023-01-15T09:55:28;18.50;94.90
21551;DHT22;10936;49.836;7.078;2023-01-15T09:57:59;18.50;94.90
21551;DHT22;10936;49.836;7.078;2023-01-15T10:00:27;18.50;94.90
21551;DHT22;10936;49.836;7.078;2023-01-15T10:05:32;18.60;94.90
21551;DHT22;10936;49.836;7.078;2023-01-15T10:08:40;18.50;94.90
21551;DHT22;10936;49.836;7.078;2023-01-15T10:13:59;18.50;94.90
21551;DHT22;10936;49.836;7.078;2023-01-15T10:16:28;18.50;94.90
21551;DHT22;10936;49.836;7.078;2023-01-15T10:18:56;18.50;94.90
21551;DHT22;10936;49.836;7.078;2023-01-15T10:24:26;18.50;94.90
21551;DHT22;10936;49.836;7.078;2023-01-15T10:26:58;18.60;94.90
21551;DHT22;10936;49.836;7.078;2023-01-15T10:29:43;18.50;94.90
21551;DHT22;10936;49.836;7.078;2023-01-15T10:34:55;18.60;94.90
21551;DHT22;10936;49.836;7.078;2023-01-15T10:37:36;18.60;94.90
21551;DHT22;10936;49.836;7.078;2023-01-15T10:42:47;18.60;94.90
21551;DHT22;10936;49.836;7.078;2023-01-15T10:45:21;18.60;94.90
21551;DHT22;10936;49.836;7.078;2023-01-15T10:50:41;18.60;94.90
21551;DHT22;10936;49.836;7.078;2023-01-15T10:55:54;18.60;94.90
21551;DHT22;10936;49.836;7.078;2023-01-15T10:58:47;18.60;94.90
21551;DHT22;10936;49.836;7.078;2023-01-15T11:01:17;18.60;94.90
21551;DHT22;10936;49.836;7.078;2023-01-15T11:03:46;18.60;94.90
21551;DHT22;10936;49.836;7.078;2023-01-15T11:06:17;18.60;94.90
21551;DHT22;10936;49.836;7.078;2023-01-15T11:08:51;18.60;94.90
21551;DHT22;10936;49.836;7.078;2023-01-15T11:14:08;18.60;94.90
21551;DHT22;10936;49.836;7.078;2023-01-15T11:16:52;18.60;94.90
21551;DHT22;10936;49.836;7.078;2023-01-15T11:19:40;18.60;94.90
21551;DHT22;10936;49.836;7.078;2023-01-15T11:22:12;18.60;94.90
21551;DHT22;10936;49.836;7.078;2023-01-15T11:24:54;18.60;94.90
21551;DHT22;10936;49.836;7.078;2023-01-15T11:27:29;18.60;94.90
21551;DHT22;10936;49.836;7.078;2023-01-15T11:30:01;18.60;94.90
21551;DHT22;10936;49.836;7.078;2023-01-15T11:32:30;18.60;94.90
21551;DHT22;10936;49.836;7.078;2023-01-15T11:34:58;18.60;94.90
21551;DHT22;10936;49.836;7.078;2023-01-15T11:37:24;18.60;94.90
21551;DHT22;10936;49.836;7.078;2023-01-15T11:39:58;18.60;94.80
21551;DHT22;10936;49.836;7.078;2023-01-15T11:42:32;18.60;94.80
21551;DHT22;10936;49.836;7.078;2023-01-15T11:45:18;18.60;94.90
21551;DHT22;10936;49.836;7.078;2023-01-15T11:48:21;18.60;94.80
21551;DHT22;10936;49.836;7.078;2023-01-15T11:51:07;18.60;94.90
21551;DHT22;10936;49.836;7.078;2023-01-15T11:53:56;18.60;94.90
21551;DHT22;10936;49.836;7.078;2023-01-15T11:56:26;18.60;94.90
21551;DHT22;10936;49.836;7.078;2023-01-15T11:58:57;18.60;94.90
21551;DHT22;10936;49.836;7.078;2023-01-15T12:01:47;18.70;95.00
21551;DHT22;10936;49.836;7.078;2023-01-15T12:06:57;18.70;95.00
21551;DHT22;10936;49.836;7.078;2023-01-15T12:17:53;18.70;95.00
21551;DHT22;10936;49.836;7.078;2023-01-15T12:20:32;18.70;95.00
21551;DHT22;10936;49.836;7.078;2023-01-15T12:25:55;18.70;95.00
21551;DHT22;10936;49.836;7.078;2023-01-15T12:28:31;18.70;95.10
21551;DHT22;10936;49.836;7.078;2023-01-15T12:31:15;18.70;95.10
21551;DHT22;10936;49.836;7.078;2023-01-15T12:37:06;18.70;95.10
21551;DHT22;10936;49.836;7.078;2023-01-15T12:39:47;18.70;95.10
21551;DHT22;10936;49.836;7.078;2023-01-15T12:42:21;18.70;95.10
21551;DHT22;10936;49.836;7.078;2023-01-15T12:45:10;18.70;95.10
21551;DHT22;10936;49.836;7.078;2023-01-15T12:48:01;18.70;95.10
21551;DHT22;10936;49.836;7.078;2023-01-15T12:50:48;18.70;95.10
21551;DHT22;10936;49.836;7.078;2023-01-15T12:53:31;18.70;95.10
21551;DHT22;10936;49.836;7.078;2023-01-15T13:04:00;18.70;95.00
21551;DHT22;10936;49.836;7.078;2023-01-15T13:06:31;18.70;95.00
21551;DHT22;10936;49.836;7.078;2023-01-15T13:09:04;18.70;95.00
21551;DHT22;10936;49.836;7.078;2023-01-15T13:11:33;18.70;95.40
21551;DHT22;10936;49.836;7.078;2023-01-15T13:13:58;18.70;95.00
21551;DHT22;10936;49.836;7.078;2023-01-15T13:16:39;18.70;95.00
21551;DHT22;10936;49.836;7.078;2023-01-15T13:19:27;18.70;95.00
21551;DHT22;10936;49.836;7.078;2023-01-15T13:21:59;18.70;95.00
21551;DHT22;10936;49.836;7.078;2023-01-15T13:33:27;18.70;95.00
21551;DHT22;10936;49.836;7.078;2023-01-15T13:36:01;18.70;95.00
21551;DHT22;10936;49.836;7.078;2023-01-15T13:38:29;18.70;95.00
21551;DHT22;10936;49.836;7.078;2023-01-15T13:41:00;18.80;95.00
21551;DHT22;10936;49.836;7.078;2023-01-15T13:43:36;18.70;95.00
21551;DHT22;10936;49.836;7.078;2023-01-15T13:46:06;18.80;95.00
21551;DHT22;10936;49.836;7.078;2023-01-15T13:48:41;18.70;94.90
21551;DHT22;10936;49.836;7.078;2023-01-15T13:51:28;18.80;95.00
21551;DHT22;10936;49.836;7.078;2023-01-15T13:53:55;18.70;94.90
21551;DHT22;10936;49.836;7.078;2023-01-15T13:56:30;18.70;94.90
21551;DHT22;10936;49.836;7.078;2023-01-15T13:59:03;18.80;94.90
21551;DHT22;10936;49.836;7.078;2023-01-15T14:04:11;18.70;94.80
21551;DHT22;10936;49.836;7.078;2023-01-15T14:09:03;18.70;94.80
21551;DHT22;10936;49.836;7.078;2023-01-15T14:17:58;18.70;94.80
21551;DHT22;10936;49.836;7.078;2023-01-15T14:23:44;18.70;94.80
21551;DHT22;10936;49.836;7.078;2023-01-15T14:26:49;18.70;94.80
21551;DHT22;10936;49.836;7.078;2023-01-15T14:35:13;18.70;94.70
21551;DHT22;10936;49.836;7.078;2023-01-15T14:37:47;18.70;94.70
21551;DHT22;10936;49.836;7.078;2023-01-15T14:40:27;18.70;94.70
21551;DHT22;10936;49.836;7.078;2023-01-15T14:42:55;18.70;94.60
21551;DHT22;10936;49.836;7.078;2023-01-15T14:50:48;18.70;94.60
21551;DHT22;10936;49.836;7.078;2023-01-15T14:53:54;18.70;94.60
21551;DHT22;10936;49.836;7.078;2023-01-15T14:56:33;18.70;94.50
21551;DHT22;10936;49.836;7.078;2023-01-15T15:04:31;18.70;94.50
21551;DHT22;10936;49.836;7.078;2023-01-15T15:09:35;18.70;94.50
21551;DHT22;10936;49.836;7.078;2023-01-15T15:15:33;18.70;94.50
21551;DHT22;10936;49.836;7.078;2023-01-15T15:18:01;18.60;94.40
21551;DHT22;10936;49.836;7.078;2023-01-15T15:20:43;18.60;94.40
21551;DHT22;10936;49.836;7.078;2023-01-15T15:23:23;18.60;94.40
21551;DHT22;10936;49.836;7.078;2023-01-15T15:25:58;18.60;94.40
21551;DHT22;10936;49.836;7.078;2023-01-15T15:28:25;18.60;94.40
21551;DHT22;10936;49.836;7.078;2023-01-15T15:30:51;18.60;94.40
21551;DHT22;10936;49.836;7.078;2023-01-15T15:33:21;18.60;94.40
21551;DHT22;10936;49.836;7.078;2023-01-15T15:35:50;18.60;94.40
21551;DHT22;10936;49.836;7.078;2023-01-15T15:38:18;18.60;94.40
21551;DHT22;10936;49.836;7.078;2023-01-15T15:40:48;18.70;94.50
21551;DHT22;10936;49.836;7.078;2023-01-15T15:46:04;18.60;94.50
21551;DHT22;10936;49.836;7.078;2023-01-15T15:49:08;18.60;94.50
21551;DHT22;10936;49.836;7.078;2023-01-15T15:51:50;18.60;94.50
21551;DHT22;10936;49.836;7.078;2023-01-15T15:54:21;18.60;94.50
21551;DHT22;10936;49.836;7.078;2023-01-15T15:59:27;18.60;94.50
21551;DHT22;10936;49.836;7.078;2023-01-15T16:01:55;18.60;94.60
21551;DHT22;10936;49.836;7.078;2023-01-15T16:04:21;18.60;94.60
21551;DHT22;10936;49.836;7.078;2023-01-15T16:06:48;18.60;94.60
21551;DHT22;10936;49.836;7.078;2023-01-15T16:09:19;18.60;94.60
21551;DHT22;10936;49.836;7.078;2023-01-15T16:11:46;18.70;94.70
21551;DHT22;10936;49.836;7.078;2023-01-15T16:14:13;18.70;94.70
21551;DHT22;10936;49.836;7.078;2023-01-15T16:16:42;18.60;94.70
21551;DHT22;10936;49.836;7.078;2023-01-15T16:19:13;18.60;94.70
21551;DHT22;10936;49.836;7.078;2023-01-15T16:21:40;18.60;94.70
21551;DHT22;10936;49.836;7.078;2023-01-15T16:24:08;18.60;94.80
21551;DHT22;10936;49.836;7.078;2023-01-15T16:26:51;18.60;94.80
21551;DHT22;10936;49.836;7.078;2023-01-15T16:29:20;18.60;94.90
21551;DHT22;10936;49.836;7.078;2023-01-15T16:31:47;18.60;94.90
21551;DHT22;10936;49.836;7.078;2023-01-15T16:34:18;18.60;94.90
21551;DHT22;10936;49.836;7.078;2023-01-15T16:36:44;18.60;95.00
21551;DHT22;10936;49.836;7.078;2023-01-15T16:41:52;18.70;95.00
21551;DHT22;10936;49.836;7.078;2023-01-15T16:46:57;18.60;95.00
21551;DHT22;10936;49.836;7.078;2023-01-15T16:49:27;18.60;95.10
21551;DHT22;10936;49.836;7.078;2023-01-15T16:51:55;18.60;95.10
21551;DHT22;10936;49.836;7.078;2023-01-15T16:57:03;18.60;95.20
21551;DHT22;10936;49.836;7.078;2023-01-15T17:02:02;18.60;95.20
21551;DHT22;10936;49.836;7.078;2023-01-15T17:04:32;18.60;95.30
21551;DHT22;10936;49.836;7.078;2023-01-15T17:07:00;18.60;95.20
21551;DHT22;10936;49.836;7.078;2023-01-15T17:09:27;18.60;95.20
21551;DHT22;10936;49.836;7.078;2023-01-15T17:11:54;18.60;95.30
21551;DHT22;10936;49.836;7.078;2023-01-15T17:14:24;18.60;95.30
21551;DHT22;10936;49.836;7.078;2023-01-15T17:17:20;18.60;95.30
21551;DHT22;10936;49.836;7.078;2023-01-15T17:19:48;18.60;95.30
21551;DHT22;10936;49.836;7.078;2023-01-15T17:22:35;18.60;95.30
21551;DHT22;10936;49.836;7.078;2023-01-15T17:25:01;18.60;95.40
21551;DHT22;10936;49.836;7.078;2023-01-15T17:27:28;18.60;95.40
21551;DHT22;10936;49.836;7.078;2023-01-15T17:29:54;18.60;95.40
21551;DHT22;10936;49.836;7.078;2023-01-15T17:32:27;18.70;95.50
21551;DHT22;10936;49.836;7.078;2023-01-15T17:34:54;18.60;95.50
21551;DHT22;10936;49.836;7.078;2023-01-15T17:37:20;18.60;95.50
21551;DHT22;10936;49.836;7.078;2023-01-15T17:39:45;18.60;95.50
21551;DHT22;10936;49.836;7.078;2023-01-15T17:42:16;18.60;95.50
21551;DHT22;10936;49.836;7.078;2023-01-15T17:44:42;18.60;95.50
21551;DHT22;10936;49.836;7.078;2023-01-15T17:47:08;18.60;95.50
21551;DHT22;10936;49.836;7.078;2023-01-15T17:49:34;18.60;95.60
21551;DHT22;10936;49.836;7.078;2023-01-15T17:52:01;18.60;95.60
21551;DHT22;10936;49.836;7.078;2023-01-15T17:54:28;18.60;95.60
21551;DHT22;10936;49.836;7.078;2023-01-15T17:57:13;18.60;95.60
21551;DHT22;10936;49.836;7.078;2023-01-15T17:59:56;18.60;95.60
21551;DHT22;10936;49.836;7.078;2023-01-15T18:02:41;18.60;95.60
21551;DHT22;10936;49.836;7.078;2023-01-15T18:05:27;18.70;95.70
21551;DHT22;10936;49.836;7.078;2023-01-15T18:07:58;18.60;95.70
21551;DHT22;10936;49.836;7.078;2023-01-15T18:10:25;18.60;95.80
21551;DHT22;10936;49.836;7.078;2023-01-15T18:12:51;18.60;95.70
21551;DHT22;10936;49.836;7.078;2023-01-15T18:15:17;18.60;95.80
21551;DHT22;10936;49.836;7.078;2023-01-15T18:17:44;18.60;95.80
21551;DHT22;10936;49.836;7.078;2023-01-15T18:20:10;18.60;95.80
21551;DHT22;10936;49.836;7.078;2023-01-15T18:22:35;18.60;95.80
21551;DHT22;10936;49.836;7.078;2023-01-15T18:25:02;18.60;95.80
21551;DHT22;10936;49.836;7.078;2023-01-15T18:27:28;18.60;95.80
21551;DHT22;10936;49.836;7.078;2023-01-15T18:29:58;18.60;95.90
21551;DHT22;10936;49.836;7.078;2023-01-15T18:32:28;18.70;95.90
21551;DHT22;10936;49.836;7.078;2023-01-15T18:34:57;18.60;95.90
21551;DHT22;10936;49.836;7.078;2023-01-15T18:37:23;18.60;95.90
21551;DHT22;10936;49.836;7.078;2023-01-15T18:39:48;18.60;95.90
21551;DHT22;10936;49.836;7.078;2023-01-15T18:42:14;18.60;95.90
21551;DHT22;10936;49.836;7.078;2023-01-15T18:44:39;18.70;96.00
21551;DHT22;10936;49.836;7.078;2023-01-15T18:47:24;18.60;95.90
21551;DHT22;10936;49.836;7.078;2023-01-15T18:49:51;18.60;96.00
21551;DHT22;10936;49.836;7.078;2023-01-15T18:52:16;18.60;96.00
21551;DHT22;10936;49.836;7.078;2023-01-15T18:55:01;18.60;96.00
21551;DHT22;10936;49.836;7.078;2023-01-15T18:57:27;18.60;96.00
21551;DHT22;10936;49.836;7.078;2023-01-15T18:59:52;18.60;96.00
21551;DHT22;10936;49.836;7.078;2023-01-15T19:02:19;18.60;96.00
21551;DHT22;10936;49.836;7.078;2023-01-15T19:04:46;18.60;96.10
21551;DHT22;10936;49.836;7.078;2023-01-15T19:07:12;18.70;96.10
21551;DHT22;10936;49.836;7.078;2023-01-15T19:09:38;18.60;96.10
21551;DHT22;10936;49.836;7.078;2023-01-15T19:12:04;18.60;96.10
21551;DHT22;10936;49.836;7.078;2023-01-15T19:14:31;18.60;96.10
21551;DHT22;10936;49.836;7.078;2023-01-15T19:17:18;18.60;96.10
21551;DHT22;10936;49.836;7.078;2023-01-15T19:20:04;18.60;96.10
21551;DHT22;10936;49.836;7.078;2023-01-15T19:22:29;18.60;96.50
21551;DHT22;10936;49.836;7.078;2023-01-15T19:25:13;18.60;96.20
21551;DHT22;10936;49.836;7.078;2023-01-15T19:27:39;18.60;96.20
21551;DHT22;10936;49.836;7.078;2023-01-15T19:30:05;18.60;96.20
21551;DHT22;10936;49.836;7.078;2023-01-15T19:32:32;18.60;96.20
21551;DHT22;10936;49.836;7.078;2023-01-15T19:34:58;18.60;96.20
21551;DHT22;10936;49.836;7.078;2023-01-15T19:37:24;18.60;96.20
21551;DHT22;10936;49.836;7.078;2023-01-15T19:39:51;18.70;96.30
21551;DHT22;10936;49.836;7.078;2023-01-15T19:42:17;18.60;96.20
21551;DHT22;10936;49.836;7.078;2023-01-15T19:45:01;18.60;96.30
21551;DHT22;10936;49.836;7.078;2023-01-15T19:47:45;18.60;96.20
21551;DHT22;10936;49.836;7.078;2023-01-15T19:50:35;18.60;96.20
21551;DHT22;10936;49.836;7.078;2023-01-15T19:53:02;18.60;96.60
21551;DHT22;10936;49.836;7.078;2023-01-15T19:55:29;18.60;96.30
21551;DHT22;10936;49.836;7.078;2023-01-15T19:58:01;18.60;96.20
21551;DHT22;10936;49.836;7.078;2023-01-15T20:00:29;18.60;96.30
21551;DHT22;10936;49.836;7.078;2023-01-15T20:02:54;18.60;96.30
21551;DHT22;10936;49.836;7.078;2023-01-15T20:05:22;18.60;96.20
21551;DHT22;10936;49.836;7.078;2023-01-15T20:07:47;18.60;96.30
21551;DHT22;10936;49.836;7.078;2023-01-15T20:10:15;18.60;96.30
21551;DHT22;10936;49.836;7.078;2023-01-15T20:12:41;18.60;96.30
21551;DHT22;10936;49.836;7.078;2023-01-15T20:15:26;18.60;96.30
21551;DHT22;10936;49.836;7.078;2023-01-15T20:17:52;18.60;96.30
21551;DHT22;10936;49.836;7.078;2023-01-15T20:20:18;18.60;96.30
21551;DHT22;10936;49.836;7.078;2023-01-15T20:22:44;18.60;96.30
21551;DHT22;10936;49.836;7.078;2023-01-15T20:25:09;18.60;96.30
21551;DHT22;10936;49.836;7.078;2023-01-15T20:27:36;18.60;96.30
21551;DHT22;10936;49.836;7.078;2023-01-15T20:30:12;18.60;96.30
21551;DHT22;10936;49.836;7.078;2023-01-15T20:32:42;18.70;96.40
21551;DHT22;10936;49.836;7.078;2023-01-15T20:35:14;18.60;96.30
21551;DHT22;10936;49.836;7.078;2023-01-15T20:37:40;18.60;96.30
21551;DHT22;10936;49.836;7.078;2023-01-15T20:40:06;18.60;96.30
21551;DHT22;10936;49.836;7.078;2023-01-15T20:42:31;18.60;96.30
21551;DHT22;10936;49.836;7.078;2023-01-15T20:45:16;18.60;96.30
21551;DHT22;10936;49.836;7.078;2023-01-15T20:47:42;18.70;96.40
21551;DHT22;10936;49.836;7.078;2023-01-15T20:50:28;18.60;96.30
21551;DHT22;10936;49.836;7.078;2023-01-15T20:52:55;18.70;96.40
21551;DHT22;10936;49.836;7.078;2023-01-15T20:55:23;18.70;96.40
21551;DHT22;10936;49.836;7.078;2023-01-15T20:57:49;18.60;96.40
21551;DHT22;10936;49.836;7.078;2023-01-15T21:00:19;18.60;96.40
21551;DHT22;10936;49.836;7.078;2023-01-15T21:02:46;18.70;96.50
21551;DHT22;10936;49.836;7.078;2023-01-15T21:05:12;18.60;96.40
21551;DHT22;10936;49.836;7.078;2023-01-15T21:07:39;18.60;96.40
21551;DHT22;10936;49.836;7.078;2023-01-15T21:10:06;18.60;96.50
21551;DHT22;10936;49.836;7.078;2023-01-15T21:12:32;18.60;96.50
21551;DHT22;10936;49.836;7.078;2023-01-15T21:14:58;18.60;96.50
21551;DHT22;10936;49.836;7.078;2023-01-15T21:17:24;18.60;96.50
21551;DHT22;10936;49.836;7.078;2023-01-15T21:19:49;18.60;96.50
21551;DHT22;10936;49.836;7.078;2023-01-15T21:22:15;18.60;96.50
21551;DHT22;10936;49.836;7.078;2023-01-15T21:24:40;18.60;96.50
21551;DHT22;10936;49.836;7.078;2023-01-15T21:27:06;18.60;96.50
21551;DHT22;10936;49.836;7.078;2023-01-15T21:29:31;18.70;96.60
21551;DHT22;10936;49.836;7.078;2023-01-15T21:31:57;18.70;96.60
21551;DHT22;10936;49.836;7.078;2023-01-15T21:34:23;18.70;96.50
21551;DHT22;10936;49.836;7.078;2023-01-15T21:36:48;18.70;96.50
21551;DHT22;10936;49.836;7.078;2023-01-15T21:39:15;18.70;96.50
21551;DHT22;10936;49.836;7.078;2023-01-15T21:41:41;18.60;96.50
21551;DHT22;10936;49.836;7.078;2023-01-15T21:44:25;18.70;96.60
21551;DHT22;10936;49.836;7.078;2023-01-15T21:47:09;18.60;96.50
21551;DHT22;10936;49.836;7.078;2023-01-15T21:49:35;18.70;96.50
21551;DHT22;10936;49.836;7.078;2023-01-15T21:52:03;18.70;96.50
21551;DHT22;10936;49.836;7.078;2023-01-15T21:54:30;18.70;96.60
21551;DHT22;10936;49.836;7.078;2023-01-15T21:56:57;18.70;96.60
21551;DHT22;10936;49.836;7.078;2023-01-15T21:59:23;18.70;96.50
21551;DHT22;10936;49.836;7.078;2023-01-15T22:01:52;18.70;96.50
21551;DHT22;10936;49.836;7.078;2023-01-15T22:04:17;18.70;96.50
21551;DHT22;10936;49.836;7.078;2023-01-15T22:06:43;18.70;96.50
21551;DHT22;10936;49.836;7.078;2023-01-15T22:09:09;18.70;96.50
21551;DHT22;10936;49.836;7.078;2023-01-15T22:11:36;18.70;96.60
21551;DHT22;10936;49.836;7.078;2023-01-15T22:14:15;18.70;96.60
21551;DHT22;10936;49.836;7.078;2023-01-15T22:16:42;18.70;96.60
21551;DHT22;10936;49.836;7.078;2023-01-15T22:19:09;18.70;96.60
21551;DHT22;10936;49.836;7.078;2023-01-15T22:21:35;18.70;96.60
21551;DHT22;10936;49.836;7.078;2023-01-15T22:24:02;18.70;96.50
21551;DHT22;10936;49.836;7.078;2023-01-15T22:26:28;18.70;96.50
21551;DHT22;10936;49.836;7.078;2023-01-15T22:28:57;18.70;96.50
